createdAt,value
2023-06-23T00:01:52.700Z,93589.72
2023-06-23T00:04:22.159Z,93593.03
2023-06-23T00:06:50.767Z,93591.38
2023-06-23T00:09:20.093Z,93592.59
2023-06-23T00:11:48.655Z,93583.91
2023-06-23T00:14:17.063Z,93577.06
2023-06-23T00:16:45.710Z,93579.72
2023-06-23T00:19:14.549Z,93579.28
2023-06-23T00:21:43.089Z,93575.31
2023-06-23T00:24:13.009Z,93572.63
2023-06-23T00:26:41.559Z,93574.59
2023-06-23T00:29:10.123Z,93569.28
2023-06-23T00:31:39.081Z,93571.13
2023-06-23T00:34:07.513Z,93567.66
2023-06-23T00:36:36.117Z,93568.50
2023-06-23T00:39:05.035Z,93562.16
2023-06-23T00:41:33.621Z,93559.78
2023-06-23T00:44:02.242Z,93560.81
2023-06-23T00:46:32.080Z,93556.69
2023-06-23T00:49:02.826Z,93550.22
2023-06-23T00:51:32.906Z,93551.19
2023-06-23T00:54:01.767Z,93550.09
2023-06-23T00:56:30.683Z,93551.84
2023-06-23T00:59:00.107Z,93545.56
2023-06-23T01:01:28.699Z,93545.22
2023-06-23T01:03:59.726Z,93544.22
2023-06-23T01:06:40.807Z,93543.53
2023-06-23T01:09:41.926Z,93536.19
2023-06-23T01:12:31.532Z,93536.06
2023-06-23T01:15:06.786Z,93532.19
2023-06-23T01:18:16.702Z,93528.66
2023-06-23T01:20:48.796Z,93527.44
2023-06-23T01:23:23.643Z,93532.19
2023-06-23T01:26:05.523Z,93529.75
2023-06-23T01:28:57.677Z,93525.78
2023-06-23T01:31:44.063Z,93523.75
2023-06-23T01:34:18.666Z,93517.16
2023-06-23T01:36:59.248Z,93515.56
2023-06-23T01:39:33.503Z,93524.63
2023-06-23T01:42:10.257Z,93521.59
2023-06-23T01:44:44.710Z,93521.16
2023-06-23T01:47:20.351Z,93521.78
2023-06-23T01:49:51.379Z,93511.00
2023-06-23T01:52:21.941Z,93509.97
2023-06-23T01:54:52.584Z,93508.28
2023-06-23T01:57:22.738Z,93503.66
2023-06-23T01:59:53.147Z,93509.25
2023-06-23T02:02:24.005Z,93509.44
2023-06-23T02:04:54.511Z,93502.31
2023-06-23T02:07:25.357Z,93503.75
2023-06-23T02:09:55.862Z,93505.63
2023-06-23T02:12:24.950Z,93499.75
2023-06-23T02:14:54.423Z,93493.56
2023-06-23T02:17:25.678Z,93497.75
2023-06-23T02:19:56.149Z,93495.13
2023-06-23T02:22:26.844Z,93491.13
2023-06-23T02:24:56.394Z,93496.25
2023-06-23T02:27:26.004Z,93490.41
2023-06-23T02:29:57.290Z,93487.94
2023-06-23T02:32:28.008Z,93480.81
2023-06-23T02:34:56.651Z,93476.00
2023-06-23T02:37:27.983Z,93479.91
2023-06-23T02:40:03.278Z,93483.75
2023-06-23T02:42:40.058Z,93487.63
2023-06-23T02:45:15.576Z,93486.09
2023-06-23T02:47:45.802Z,93487.50
2023-06-23T02:50:16.101Z,93488.44
2023-06-23T02:52:48.138Z,93477.19
2023-06-23T02:55:21.841Z,93478.75
2023-06-23T02:57:53.590Z,93483.00
2023-06-23T03:00:25.609Z,93484.91
2023-06-23T03:03:01.231Z,93486.31
2023-06-23T03:05:30.381Z,93477.03
2023-06-23T03:07:59.303Z,93474.28
2023-06-23T03:10:27.856Z,93471.97
2023-06-23T03:12:56.696Z,93476.63
2023-06-23T03:15:25.373Z,93474.00
2023-06-23T03:18:01.366Z,93479.09
2023-06-23T03:21:03.170Z,93483.16
2023-06-23T03:23:33.782Z,93485.16
2023-06-23T03:26:03.921Z,93475.41
2023-06-23T03:28:37.124Z,93471.72
2023-06-23T03:31:11.197Z,93471.88
2023-06-23T03:33:44.427Z,93478.38
2023-06-23T03:36:24.972Z,93482.38
2023-06-23T03:39:07.407Z,93481.78
2023-06-23T03:41:37.175Z,93473.88
2023-06-23T03:44:26.986Z,93477.09
2023-06-23T03:47:23.690Z,93477.09
2023-06-23T03:50:01.650Z,93473.38
2023-06-23T03:52:31.545Z,93475.53
2023-06-23T03:55:01.578Z,93475.69
2023-06-23T03:57:33.715Z,93481.56
2023-06-23T04:00:04.397Z,93468.88
2023-06-23T04:02:35.019Z,93474.59
2023-06-23T04:05:06.931Z,93475.38
2023-06-23T04:07:37.178Z,93477.69
2023-06-23T04:10:08.536Z,93480.66
2023-06-23T04:12:38.758Z,93483.44
2023-06-23T04:15:11.368Z,93482.97
2023-06-23T04:17:44.158Z,93482.66
2023-06-23T04:20:13.194Z,93484.19
2023-06-23T04:22:45.810Z,93484.81
2023-06-23T04:25:18.851Z,93477.56
2023-06-23T04:27:53.475Z,93487.94
2023-06-23T04:30:24.218Z,93488.56
2023-06-23T04:32:52.852Z,93489.16
2023-06-23T04:35:21.616Z,93489.75
2023-06-23T04:38:00.474Z,93486.81
2023-06-23T04:40:35.576Z,93479.72
2023-06-23T04:43:30.940Z,93483.41
2023-06-23T04:46:26.050Z,93484.50
2023-06-23T04:49:02.655Z,93479.56
2023-06-23T04:51:45.973Z,93492.19
2023-06-23T04:54:20.648Z,93500.03
2023-06-23T04:56:52.422Z,93506.28
2023-06-23T04:59:24.595Z,93507.88
2023-06-23T05:01:53.508Z,93509.25
2023-06-23T05:04:23.498Z,93516.00
2023-06-23T05:06:54.799Z,93521.59
2023-06-23T05:09:25.421Z,93511.53
2023-06-23T05:11:55.696Z,93516.84
2023-06-23T05:14:26.112Z,93508.31
2023-06-23T05:16:59.227Z,93490.91
2023-06-23T05:19:31.740Z,93495.44
2023-06-23T05:22:02.378Z,93512.13
2023-06-23T05:24:32.770Z,93514.09
2023-06-23T05:27:05.120Z,93516.41
2023-06-23T05:29:38.380Z,93529.78
2023-06-23T05:32:11.353Z,93527.03
2023-06-23T05:34:40.531Z,93530.25
2023-06-23T05:37:09.708Z,93528.59
2023-06-23T05:39:41.813Z,93530.25
2023-06-23T05:42:10.533Z,93526.72
2023-06-23T05:44:39.953Z,93533.81
2023-06-23T05:47:12.372Z,93542.50
2023-06-23T05:49:48.413Z,93549.22
2023-06-23T05:52:21.336Z,93550.09
2023-06-23T05:54:52.570Z,93560.91
2023-06-23T05:57:31.667Z,93553.81
2023-06-23T06:00:16.137Z,93551.41
2023-06-23T06:02:50.057Z,93547.22
2023-06-23T06:05:20.967Z,93550.34
2023-06-23T06:07:51.059Z,93554.41
2023-06-23T06:10:22.509Z,93550.75
2023-06-23T06:12:53.002Z,93542.09
2023-06-23T06:15:22.308Z,93535.56
2023-06-23T06:17:53.029Z,93532.28
2023-06-23T06:20:23.500Z,93537.13
2023-06-23T06:22:57.961Z,93529.28
2023-06-23T06:25:32.596Z,93524.28
2023-06-23T06:28:03.749Z,93514.41
2023-06-23T06:30:35.464Z,93518.75
2023-06-23T06:33:05.874Z,93521.91
2023-06-23T06:35:36.970Z,93513.81
2023-06-23T06:38:07.915Z,93515.59
2023-06-23T06:40:39.236Z,93515.00
2023-06-23T06:43:07.919Z,93513.22
2023-06-23T06:45:36.147Z,93520.97
2023-06-23T06:48:11.036Z,93518.34
2023-06-23T06:50:40.630Z,93507.28
2023-06-23T06:53:11.461Z,93505.59
2023-06-23T06:55:41.070Z,93498.41
2023-06-23T06:58:10.218Z,93499.00
2023-06-23T07:00:39.109Z,93492.75
2023-06-23T07:03:08.563Z,93501.78
2023-06-23T07:05:37.331Z,93490.59
2023-06-23T07:08:06.199Z,93493.34
2023-06-23T07:10:37.123Z,93489.75
2023-06-23T07:13:05.961Z,93487.56
2023-06-23T07:15:34.614Z,93482.84
2023-06-23T07:18:03.285Z,93483.34
2023-06-23T07:20:32.716Z,93476.66
2023-06-23T07:23:01.625Z,93479.22
2023-06-23T07:25:30.121Z,93476.88
2023-06-23T07:27:58.714Z,93479.16
2023-06-23T07:30:27.498Z,93472.59
2023-06-23T07:32:56.499Z,93471.13
2023-06-23T07:35:25.044Z,93470.28
2023-06-23T07:37:53.695Z,93466.09
2023-06-23T07:40:22.301Z,93480.06
2023-06-23T07:42:50.926Z,93473.59
2023-06-23T07:45:19.607Z,93477.38
2023-06-23T07:47:48.254Z,93475.34
2023-06-23T07:50:16.917Z,93475.16
2023-06-23T07:52:47.927Z,93476.03
2023-06-23T07:55:21.836Z,93473.41
2023-06-23T07:57:51.324Z,93472.25
2023-06-23T08:00:20.236Z,93469.47
2023-06-23T08:02:48.973Z,93476.53
2023-06-23T08:05:17.745Z,93482.81
2023-06-23T08:07:48.007Z,93475.47
2023-06-23T08:10:16.566Z,93475.81
2023-06-23T08:12:45.245Z,93471.41
2023-06-23T08:15:13.932Z,93467.50
2023-06-23T08:17:43.717Z,93475.16
2023-06-23T08:20:12.807Z,93466.00
2023-06-23T08:22:43.018Z,93467.59
2023-06-23T08:25:11.717Z,93468.44
2023-06-23T08:27:40.344Z,93466.25
2023-06-23T08:30:09.566Z,93459.97
2023-06-23T08:32:38.262Z,93466.72
2023-06-23T08:35:07.237Z,93459.47
2023-06-23T08:37:35.850Z,93460.25
2023-06-23T08:40:04.900Z,93461.50
2023-06-23T08:42:34.643Z,93460.53
2023-06-23T08:45:06.109Z,93459.41
2023-06-23T08:47:39.595Z,93456.66
2023-06-23T08:50:09.374Z,93458.13
2023-06-23T08:52:38.354Z,93460.38
2023-06-23T08:55:07.511Z,93463.25
2023-06-23T08:57:36.620Z,93460.97
2023-06-23T09:00:06.558Z,93450.38
2023-06-23T09:02:35.324Z,93451.75
2023-06-23T09:05:04.093Z,93452.72
2023-06-23T09:07:32.284Z,93450.31
2023-06-23T09:10:01.182Z,93451.66
2023-06-23T09:12:30.177Z,93454.75
2023-06-23T09:15:01.274Z,93457.47
2023-06-23T09:17:31.587Z,93455.25
2023-06-23T09:20:00.781Z,93458.53
2023-06-23T09:22:30.933Z,93461.28
2023-06-23T09:24:59.511Z,93469.13
2023-06-23T09:27:44.445Z,93463.47
2023-06-23T09:30:13.329Z,93458.47
2023-06-23T09:32:46.932Z,93461.84
2023-06-23T09:35:20.644Z,93453.47
2023-06-23T09:37:50.583Z,93454.03
2023-06-23T09:40:27.770Z,93445.72
2023-06-23T09:43:02.934Z,93436.16
2023-06-23T09:45:32.825Z,93440.16
2023-06-23T09:48:01.534Z,93433.56
2023-06-23T09:50:30.593Z,93431.63
2023-06-23T09:53:06.908Z,93438.78
2023-06-23T09:55:35.518Z,93446.59
2023-06-23T09:58:13.042Z,93443.09
2023-06-23T10:00:41.713Z,93451.19
2023-06-23T10:03:10.513Z,93451.34
2023-06-23T10:05:39.616Z,93444.31
2023-06-23T10:08:13.553Z,93436.81
2023-06-23T10:10:46.801Z,93440.63
2023-06-23T10:13:16.499Z,93430.44
2023-06-23T10:15:45.389Z,93420.13
2023-06-23T10:18:16.091Z,93430.91
2023-06-23T10:20:45.936Z,93429.47
2023-06-23T10:23:16.101Z,93419.44
2023-06-23T10:25:47.785Z,93427.72
2023-06-23T10:28:20.479Z,93426.53
2023-06-23T10:30:50.327Z,93415.84
2023-06-23T10:33:23.272Z,93412.31
2023-06-23T10:35:56.535Z,93430.47
2023-06-23T10:38:26.628Z,93428.00
2023-06-23T10:40:57.500Z,93440.66
2023-06-23T10:43:30.637Z,93437.00
2023-06-23T10:46:00.337Z,93440.84
2023-06-23T10:48:32.867Z,93448.44
2023-06-23T10:51:02.600Z,93447.78
2023-06-23T10:53:35.383Z,93443.91
2023-06-23T10:56:09.764Z,93452.00
2023-06-23T10:58:52.670Z,93447.25
2023-06-23T11:01:21.363Z,93449.00
2023-06-23T11:03:57.378Z,93462.88
2023-06-23T11:06:38.003Z,93461.47
2023-06-23T11:09:41.894Z,93462.97
2023-06-23T11:12:28.422Z,93458.56
2023-06-23T11:15:01.851Z,93460.59
2023-06-23T11:17:30.859Z,93459.31
2023-06-23T11:20:00.723Z,93456.22
2023-06-23T11:22:31.765Z,93456.88
2023-06-23T11:25:07.388Z,93462.88
2023-06-23T11:27:36.073Z,93452.91
2023-06-23T11:30:19.089Z,93457.16
2023-06-23T11:32:47.821Z,93466.03
2023-06-23T11:35:17.720Z,93458.25
2023-06-23T11:37:46.350Z,93471.69
2023-06-23T11:40:15.700Z,93465.88
2023-06-23T11:42:48.256Z,93479.16
2023-06-23T11:45:17.100Z,93481.78
2023-06-23T11:47:45.815Z,93483.66
2023-06-23T11:50:14.561Z,93476.06
2023-06-23T11:52:44.346Z,93481.78
2023-06-23T11:55:14.190Z,93491.38
2023-06-23T11:57:43.061Z,93482.34
2023-06-23T12:00:14.354Z,93493.75
2023-06-23T12:02:47.557Z,93486.88
2023-06-23T12:05:16.333Z,93486.88
2023-06-23T12:07:45.012Z,93495.41
2023-06-23T12:10:13.709Z,93492.81
2023-06-23T12:15:12.227Z,93501.34
2023-06-23T12:17:47.173Z,93497.69
2023-06-23T12:20:20.281Z,93502.63
2023-06-23T12:22:51.074Z,93499.22
2023-06-23T12:25:21.414Z,93506.78
2023-06-23T12:28:13.506Z,93506.28
2023-06-23T12:30:44.323Z,93506.50
2023-06-23T12:33:42.933Z,93504.38
2023-06-23T12:36:17.525Z,93498.97
2023-06-23T12:38:46.802Z,93505.63
2023-06-23T12:41:23.097Z,93509.94
2023-06-23T12:43:52.331Z,93513.75
2023-06-23T12:46:26.115Z,93508.97
2023-06-23T12:48:56.708Z,93508.63
2023-06-23T12:51:38.809Z,93504.19
2023-06-23T12:54:08.068Z,93508.50
2023-06-23T12:56:36.698Z,93498.19
2023-06-23T12:59:05.678Z,93500.44
2023-06-23T13:01:34.574Z,93501.56
2023-06-23T13:04:03.142Z,93504.59
2023-06-23T13:06:31.984Z,93507.22
2023-06-23T13:09:01.880Z,93498.81
2023-06-23T13:11:30.558Z,93508.34
2023-06-23T13:13:59.226Z,93505.03
2023-06-23T13:16:27.807Z,93513.16
2023-06-23T13:18:56.690Z,93513.91
2023-06-23T13:21:25.300Z,93507.16
2023-06-23T13:23:53.888Z,93511.66
2023-06-23T13:26:22.826Z,93517.38
2023-06-23T13:28:51.421Z,93518.56
2023-06-23T13:31:20.063Z,93514.56
2023-06-23T13:33:48.832Z,93514.41
2023-06-23T13:36:17.395Z,93512.91
2023-06-23T13:38:48.176Z,93519.13
2023-06-23T13:41:16.819Z,93518.69
2023-06-23T13:43:45.403Z,93525.88
2023-06-23T13:46:16.197Z,93519.41
2023-06-23T13:48:44.891Z,93517.16
2023-06-23T13:51:13.497Z,93511.16
2023-06-23T13:53:42.181Z,93515.44
2023-06-23T13:56:10.884Z,93511.56
2023-06-23T13:58:39.511Z,93519.03
2023-06-23T14:01:08.188Z,93529.97
2023-06-23T14:03:36.833Z,93526.66
2023-06-23T14:06:06.345Z,93528.28
2023-06-23T14:08:36.400Z,93528.41
2023-06-23T14:11:05.018Z,93523.22
2023-06-23T14:13:33.705Z,93520.41
2023-06-23T14:16:04.680Z,93522.75
2023-06-23T14:18:34.848Z,93528.84
2023-06-23T14:21:03.832Z,93520.69
2023-06-23T14:23:32.605Z,93517.72
2023-06-23T14:26:01.343Z,93516.50
2023-06-23T14:28:30.855Z,93516.69
2023-06-23T14:30:59.878Z,93522.28
2023-06-23T14:33:28.958Z,93520.84
2023-06-23T14:35:57.670Z,93500.13
2023-06-23T14:38:26.341Z,93523.41
2023-06-23T14:40:54.967Z,93523.06
2023-06-23T14:43:23.627Z,93516.13
2023-06-23T14:45:54.018Z,93521.16
2023-06-23T14:48:24.298Z,93515.66
2023-06-23T14:50:53.002Z,93524.59
2023-06-23T14:53:21.691Z,93514.78
2023-06-23T14:55:50.353Z,93515.19
2023-06-23T14:58:18.956Z,93516.56
2023-06-23T15:00:47.593Z,93526.44
2023-06-23T15:03:16.311Z,93526.91
2023-06-23T15:05:44.965Z,93522.59
2023-06-23T15:08:13.583Z,93523.66
2023-06-23T15:10:42.251Z,93530.47
2023-06-23T15:13:10.961Z,93539.91
2023-06-23T15:15:41.416Z,93540.69
2023-06-23T15:18:10.517Z,93543.47
2023-06-23T15:20:39.163Z,93537.66
2023-06-23T15:23:07.842Z,93542.19
2023-06-23T15:25:36.863Z,93544.63
2023-06-23T15:28:10.642Z,93536.16
2023-06-23T15:30:39.280Z,93534.06
2023-06-23T15:33:07.938Z,93531.03
2023-06-23T15:35:36.605Z,93530.00
2023-06-23T15:38:05.270Z,93518.22
2023-06-23T15:40:33.701Z,93510.81
2023-06-23T15:43:02.246Z,93514.06
2023-06-23T15:45:31.123Z,93515.63
2023-06-23T15:47:59.911Z,93502.59
2023-06-23T15:50:28.617Z,93509.66
2023-06-23T15:52:57.767Z,93500.31
2023-06-23T15:55:26.406Z,93489.28
2023-06-23T15:57:55.002Z,93505.00
2023-06-23T16:00:25.432Z,93499.13
2023-06-23T16:02:54.993Z,93508.41
2023-06-23T16:05:28.223Z,93505.22
2023-06-23T16:07:56.908Z,93498.38
2023-06-23T16:10:26.009Z,93511.38
2023-06-23T16:12:54.650Z,93507.47
2023-06-23T16:15:23.278Z,93509.13
2023-06-23T16:17:53.231Z,93508.88
2023-06-23T16:20:22.027Z,93506.00
2023-06-23T16:22:50.703Z,93512.50
2023-06-23T16:25:19.511Z,93516.69
2023-06-23T16:27:47.536Z,93511.94
2023-06-23T16:30:16.233Z,93515.78
2023-06-23T16:32:45.022Z,93508.53
2023-06-23T16:35:13.716Z,93501.34
2023-06-23T16:37:42.306Z,93514.03
2023-06-23T16:40:11.448Z,93504.50
2023-06-23T16:42:40.060Z,93508.84
2023-06-23T16:45:09.282Z,93509.03
2023-06-23T16:47:46.920Z,93515.00
2023-06-23T16:50:17.283Z,93514.94
2023-06-23T16:52:46.010Z,93518.25
2023-06-23T16:55:14.664Z,93525.44
2023-06-23T16:57:44.810Z,93519.22
2023-06-23T17:00:13.995Z,93511.66
2023-06-23T17:02:42.761Z,93514.06
2023-06-23T17:05:11.547Z,93513.31
2023-06-23T17:07:40.112Z,93517.47
2023-06-23T17:10:09.422Z,93512.13
2023-06-23T17:12:39.154Z,93511.13
2023-06-23T17:15:08.321Z,93513.94
2023-06-23T17:17:36.976Z,93518.38
2023-06-23T17:20:06.573Z,93519.38
2023-06-23T17:22:35.253Z,93513.75
2023-06-23T17:25:03.918Z,93525.84
2023-06-23T17:27:32.609Z,93515.78
2023-06-23T17:30:01.279Z,93522.78
2023-06-23T17:32:30.134Z,93521.34
2023-06-23T17:34:58.810Z,93527.78
2023-06-23T17:37:27.309Z,93526.16
2023-06-23T17:39:55.911Z,93530.22
2023-06-23T17:42:24.365Z,93521.16
2023-06-23T17:44:52.943Z,93523.28
2023-06-23T17:47:22.558Z,93525.53
2023-06-23T17:49:54.026Z,93523.31
2023-06-23T17:52:22.778Z,93519.66
2023-06-23T17:54:51.867Z,93523.13
2023-06-23T17:57:20.470Z,93517.06
2023-06-23T17:59:49.358Z,93520.25
2023-06-23T18:02:21.078Z,93522.84
2023-06-23T18:04:50.848Z,93519.47
2023-06-23T18:07:19.711Z,93520.00
2023-06-23T18:09:48.501Z,93522.13
2023-06-23T18:12:17.071Z,93508.81
2023-06-23T18:14:45.660Z,93518.91
2023-06-23T18:17:14.683Z,93517.88
2023-06-23T18:19:43.694Z,93516.25
2023-06-23T18:22:12.475Z,93516.63
2023-06-23T18:24:41.208Z,93517.78
2023-06-23T18:27:09.808Z,93514.81
2023-06-23T18:29:41.820Z,93516.06
2023-06-23T18:32:42.925Z,93521.97
2023-06-23T18:35:13.436Z,93517.22
2023-06-23T18:37:43.354Z,93522.25
2023-06-23T18:40:14.391Z,93512.69
2023-06-23T18:42:44.210Z,93527.09
2023-06-23T18:45:14.383Z,93516.66
2023-06-23T18:47:43.236Z,93518.53
2023-06-23T18:50:12.423Z,93519.84
2023-06-23T18:52:41.107Z,93522.84
2023-06-23T18:55:10.096Z,93512.22
2023-06-23T18:57:38.924Z,93516.56
2023-06-23T19:00:08.345Z,93516.16
2023-06-23T19:02:37.526Z,93517.63
2023-06-23T19:05:06.550Z,93514.97
2023-06-23T19:07:35.166Z,93513.44
2023-06-23T19:10:03.962Z,93513.63
2023-06-23T19:12:32.597Z,93518.22
2023-06-23T19:15:01.185Z,93510.13
2023-06-23T19:17:30.039Z,93516.41
2023-06-23T19:19:59.768Z,93511.16
2023-06-23T19:22:29.372Z,93508.75
2023-06-23T19:24:58.159Z,93513.53
2023-06-23T19:27:26.705Z,93509.16
2023-06-23T19:29:55.290Z,93514.47
2023-06-23T19:32:23.945Z,93523.69
2023-06-23T19:34:52.625Z,93527.75
2023-06-23T19:37:21.300Z,93518.34
2023-06-23T19:42:21.432Z,93522.59
2023-06-23T19:44:50.110Z,93515.94
2023-06-23T19:47:18.719Z,93519.00
2023-06-23T19:49:49.150Z,93523.31
2023-06-23T19:52:17.932Z,93510.38
2023-06-23T19:54:46.503Z,93507.41
2023-06-23T19:57:15.170Z,93510.53
2023-06-23T19:59:43.830Z,93508.91
2023-06-23T20:02:12.398Z,93498.69
2023-06-23T20:04:41.073Z,93508.03
2023-06-23T20:07:09.639Z,93500.28
2023-06-23T20:09:38.396Z,93503.72
2023-06-23T20:12:07.303Z,93500.41
2023-06-23T20:14:35.862Z,93500.25
2023-06-23T20:17:05.657Z,93493.81
2023-06-23T20:19:34.298Z,93502.34
2023-06-23T20:22:02.939Z,93504.41
2023-06-23T20:24:31.495Z,93499.34
2023-06-23T20:27:00.116Z,93498.34
2023-06-23T20:29:28.912Z,93497.53
2023-06-23T20:31:57.122Z,93497.19
2023-06-23T20:34:25.831Z,93498.97
2023-06-23T20:36:55.160Z,93493.19
2023-06-23T20:39:23.830Z,93495.06
2023-06-23T20:41:52.442Z,93495.53
2023-06-23T20:44:21.038Z,93495.91
2023-06-23T20:46:49.640Z,93494.88
2023-06-23T20:49:18.746Z,93495.53
2023-06-23T20:51:47.765Z,93492.50
2023-06-23T20:54:16.368Z,93489.09
2023-06-23T20:56:44.435Z,93482.59
2023-06-23T20:59:13.119Z,93479.03
2023-06-23T21:01:41.731Z,93479.28
2023-06-23T21:04:10.348Z,93481.75
2023-06-23T21:06:39.062Z,93478.63
2023-06-23T21:09:07.640Z,93475.50
2023-06-23T21:11:36.247Z,93483.19
2023-06-23T21:14:04.884Z,93477.81
2023-06-23T21:16:33.604Z,93474.44
2023-06-23T21:19:02.674Z,93475.78
2023-06-23T21:21:31.348Z,93469.44
2023-06-23T21:24:03.113Z,93466.13
2023-06-23T21:26:31.928Z,93460.69
2023-06-23T21:29:00.523Z,93463.09
2023-06-23T21:31:29.268Z,93463.66
2023-06-23T21:33:57.967Z,93455.84
2023-06-23T21:36:26.620Z,93453.44
2023-06-23T21:38:55.708Z,93459.59
2023-06-23T21:41:24.505Z,93458.59
2023-06-23T21:43:52.474Z,93450.72
2023-06-23T21:46:21.263Z,93452.09
2023-06-23T21:48:56.613Z,93441.88
2023-06-23T21:51:26.522Z,93443.34
2023-06-23T21:53:55.444Z,93447.00
2023-06-23T21:56:24.081Z,93443.28
2023-06-23T21:58:52.751Z,93445.38
2023-06-23T22:01:22.276Z,93438.78
2023-06-23T22:03:51.078Z,93445.03
2023-06-23T22:06:19.762Z,93442.88
2023-06-23T22:08:48.177Z,93447.72
2023-06-23T22:11:16.884Z,93452.72
2023-06-23T22:13:46.036Z,93438.81
2023-06-23T22:16:14.570Z,93434.81
2023-06-23T22:18:49.736Z,93438.09
2023-06-23T22:21:22.045Z,93450.63
2023-06-23T22:23:50.635Z,93450.25
2023-06-23T22:26:19.306Z,93448.28
2023-06-23T22:28:47.921Z,93450.19
2023-06-23T22:31:17.097Z,93449.91
2023-06-23T22:33:45.182Z,93444.88
2023-06-23T22:36:13.874Z,93440.94
2023-06-23T22:38:42.580Z,93449.75
2023-06-23T22:41:11.269Z,93443.31
2023-06-23T22:43:40.019Z,93442.91
2023-06-23T22:46:08.680Z,93443.75
2023-06-23T22:48:37.336Z,93444.44
2023-06-23T22:51:05.299Z,93448.69
2023-06-23T22:53:34.229Z,93441.53
2023-06-23T22:56:03.345Z,93442.72
2023-06-23T22:58:31.839Z,93442.03
2023-06-23T23:01:00.427Z,93442.94
2023-06-23T23:03:29.113Z,93435.69
2023-06-23T23:05:57.836Z,93437.88
2023-06-23T23:08:26.553Z,93440.59
2023-06-23T23:10:56.126Z,93429.31
2023-06-23T23:13:24.790Z,93437.72
2023-06-23T23:15:53.343Z,93434.81
2023-06-23T23:18:22.373Z,93432.06
2023-06-23T23:20:51.002Z,93425.44
2023-06-23T23:23:19.621Z,93424.47
2023-06-23T23:25:48.954Z,93412.31
2023-06-23T23:28:17.555Z,93408.06
2023-06-23T23:30:46.260Z,93418.28
2023-06-23T23:33:14.902Z,93411.75
2023-06-23T23:35:43.583Z,93416.13
2023-06-23T23:38:12.146Z,93405.19
2023-06-23T23:40:40.753Z,93404.47
2023-06-23T23:43:09.658Z,93405.53
2023-06-23T23:45:38.230Z,93402.41
2023-06-23T23:48:07.262Z,93400.50
2023-06-23T23:50:36.177Z,93402.13
2023-06-23T23:53:05.308Z,93401.19
2023-06-23T23:55:33.962Z,93403.59
2023-06-23T23:58:02.594Z,93402.06
